Time;durP1;ratioP1;P1;durP2;ratioP2;P2;SDS_P1;SDS_P2;PMS_P1;PMS_P2;Temp;Humidity;BMP_temperature;BMP_pressure;BME280_temperature;BME280_humidity;BME280_pressure;Samples;Min_cycle;Max_cycle;Signal;HPM_P1;HPM_P2
2023/07/15 00:00:42;;;;;;;7.70;3.80;;;23.90;99.90;;;;;;5138269;27;20027;-71
2023/07/15 00:03:09;;;;;;;7.53;3.83;;;23.90;99.90;;;;;;5136481;27;20055;-71
2023/07/15 00:05:35;;;;;;;8.88;4.07;;;23.90;99.90;;;;;;5133320;27;20028;-71
2023/07/15 00:08:06;;;;;;;6.18;4.03;;;23.90;99.90;;;;;;5132235;27;20023;-71
2023/07/15 00:10:34;;;;;;;4.88;3.83;;;23.90;99.90;;;;;;5138091;27;20031;-72
2023/07/15 00:13:00;;;;;;;6.63;4.40;;;23.90;99.90;;;;;;5137537;27;20375;-72
2023/07/15 00:15:25;;;;;;;6.78;3.78;;;24.00;99.90;;;;;;5137836;27;20023;-71
2023/07/15 00:17:52;;;;;;;7.40;3.30;;;24.00;99.90;;;;;;5137850;28;20080;-71
2023/07/15 00:20:19;;;;;;;7.35;3.78;;;24.00;99.90;;;;;;5138026;27;20482;-71
2023/07/15 00:22:45;;;;;;;7.57;4.88;;;23.90;99.90;;;;;;5137734;27;20483;-72
2023/07/15 00:25:16;;;;;;;7.25;4.13;;;24.00;99.90;;;;;;5138240;27;20042;-71
2023/07/15 00:27:43;;;;;;;5.43;3.40;;;23.90;99.90;;;;;;5137569;27;20022;-71
2023/07/15 00:30:11;;;;;;;7.68;4.20;;;23.90;99.90;;;;;;5138118;27;20072;-71
2023/07/15 00:32:37;;;;;;;7.32;4.32;;;23.90;99.90;;;;;;5137619;27;20024;-72
2023/07/15 00:35:13;;;;;;;10.45;4.20;;;23.90;99.90;;;;;;5137852;27;20019;-71
2023/07/15 00:37:38;;;;;;;5.72;3.65;;;23.90;99.90;;;;;;5136172;28;20046;-71
2023/07/15 00:40:05;;;;;;;7.60;4.55;;;23.90;99.90;;;;;;5136556;28;20023;-71
2023/07/15 00:42:52;;;;;;;10.63;4.63;;;23.90;99.90;;;;;;5136228;28;20027;-71
2023/07/15 00:45:17;;;;;;;8.57;4.85;;;23.90;99.90;;;;;;5137623;28;20035;-71
2023/07/15 00:48:05;;;;;;;9.05;4.60;;;23.90;99.90;;;;;;5137703;28;20038;-71
2023/07/15 00:50:31;;;;;;;9.23;4.03;;;23.90;99.90;;;;;;5137081;27;20068;-71
2023/07/15 00:52:56;;;;;;;9.23;3.38;;;23.90;99.90;;;;;;5137813;28;20019;-72
2023/07/15 00:55:22;;;;;;;4.32;2.85;;;23.80;99.90;;;;;;5137351;27;20471;-71
2023/07/15 00:57:48;;;;;;;5.32;3.20;;;23.80;99.90;;;;;;5137683;28;20023;-71
2023/07/15 01:00:14;;;;;;;4.93;2.63;;;23.70;99.90;;;;;;5135960;28;20031;-71
2023/07/15 01:02:42;;;;;;;3.92;2.83;;;23.70;99.90;;;;;;5135410;27;20041;-71
2023/07/15 01:05:10;;;;;;;5.13;3.05;;;23.60;99.90;;;;;;5137278;27;20463;-71
2023/07/15 01:07:36;;;;;;;3.60;3.03;;;23.50;99.90;;;;;;5137457;27;20020;-71
2023/07/15 01:10:02;;;;;;;4.18;3.05;;;23.50;99.90;;;;;;5137443;28;20499;-71
2023/07/15 01:12:28;;;;;;;4.43;2.47;;;23.40;99.90;;;;;;5136200;28;20020;-71
2023/07/15 01:14:54;;;;;;;3.65;2.55;;;23.40;99.90;;;;;;5136302;27;20050;-72
2023/07/15 01:17:20;;;;;;;5.75;2.75;;;23.40;99.90;;;;;;5137465;27;20043;-71
2023/07/15 01:19:46;;;;;;;6.25;2.80;;;23.30;99.90;;;;;;5137127;27;20032;-72
2023/07/15 01:22:12;;;;;;;5.78;2.50;;;23.20;99.90;;;;;;5135857;28;20015;-71
2023/07/15 01:24:39;;;;;;;3.92;2.40;;;23.10;99.90;;;;;;5124379;28;20430;-71
2023/07/15 01:27:07;;;;;;;7.20;3.10;;;23.10;99.90;;;;;;5138906;27;20490;-71
2023/07/15 01:29:33;;;;;;;3.85;2.45;;;23.10;99.90;;;;;;5140635;27;20019;-71
2023/07/15 01:31:59;;;;;;;4.75;2.33;;;23.10;99.90;;;;;;5139827;27;20041;-71
2023/07/15 01:34:24;;;;;;;3.92;2.40;;;23.00;99.90;;;;;;5140322;27;20030;-71
2023/07/15 01:36:51;;;;;;;6.03;2.50;;;23.00;99.90;;;;;;5141035;27;20121;-71
2023/07/15 01:39:17;;;;;;;3.22;2.45;;;23.00;99.90;;;;;;5140546;27;20398;-71
2023/07/15 01:41:43;;;;;;;3.67;1.92;;;23.00;99.90;;;;;;5140867;27;20431;-72
2023/07/15 01:44:10;;;;;;;9.18;2.72;;;23.00;99.90;;;;;;5140367;27;20019;-71
2023/07/15 01:46:39;;;;;;;4.80;3.10;;;22.90;99.90;;;;;;5140980;27;20023;-71
2023/07/15 01:49:05;;;;;;;7.57;2.40;;;22.80;99.90;;;;;;5127134;27;20019;-71
2023/07/15 01:51:31;;;;;;;5.15;2.40;;;22.80;99.90;;;;;;5140616;27;20011;-72
2023/07/15 01:53:56;;;;;;;3.58;2.25;;;22.70;99.90;;;;;;5140512;27;20056;-71
2023/07/15 01:56:22;;;;;;;3.97;2.40;;;22.60;99.90;;;;;;5140650;27;20059;-71
2023/07/15 01:58:48;;;;;;;3.35;2.50;;;22.60;99.90;;;;;;5126926;27;20402;-71
2023/07/15 02:01:13;;;;;;;4.70;2.15;;;22.40;99.90;;;;;;5139040;27;20019;-71
2023/07/15 02:03:40;;;;;;;4.60;2.33;;;22.30;99.90;;;;;;5126433;27;20415;-71
2023/07/15 02:06:06;;;;;;;3.30;2.30;;;22.30;99.90;;;;;;5140255;27;20019;-71
2023/07/15 02:08:32;;;;;;;3.85;2.35;;;22.30;99.90;;;;;;5140099;27;20031;-71
2023/07/15 02:10:58;;;;;;;3.40;2.10;;;22.20;99.90;;;;;;5140397;27;20022;-71
2023/07/15 02:13:24;;;;;;;5.68;2.47;;;22.20;99.90;;;;;;5139863;27;20042;-71
2023/07/15 02:15:50;;;;;;;3.88;2.40;;;22.10;99.90;;;;;;5140090;27;20016;-71
2023/07/15 02:18:15;;;;;;;5.05;2.30;;;22.00;99.90;;;;;;5138145;27;20444;-71
2023/07/15 02:20:41;;;;;;;4.63;2.53;;;22.00;99.90;;;;;;5139985;27;20038;-71
2023/07/15 02:23:09;;;;;;;3.92;2.75;;;21.90;99.90;;;;;;5139935;27;20264;-71
2023/07/15 02:25:35;;;;;;;4.75;2.50;;;22.00;99.90;;;;;;5139816;27;20019;-71
2023/07/15 02:28:02;;;;;;;4.32;2.22;;;21.90;99.90;;;;;;5136138;27;20031;-71
2023/07/15 02:30:28;;;;;;;5.45;2.75;;;21.80;99.90;;;;;;5139790;27;20391;-71
2023/07/15 02:32:54;;;;;;;8.68;2.58;;;21.80;99.90;;;;;;5139688;27;20023;-71
2023/07/15 02:35:20;;;;;;;4.20;2.25;;;21.80;99.90;;;;;;5139389;27;20016;-71
2023/07/15 02:37:48;;;;;;;4.70;2.30;;;21.80;99.90;;;;;;5138221;27;20034;-71
2023/07/15 02:40:15;;;;;;;3.83;2.17;;;21.80;99.90;;;;;;5139625;27;20034;-71
2023/07/15 02:42:40;;;;;;;5.68;2.25;;;21.80;99.90;;;;;;5139570;27;20028;-72
2023/07/15 02:45:11;;;;;;;3.88;2.20;;;21.80;99.90;;;;;;5139710;27;20446;-71
2023/07/15 02:47:39;;;;;;;5.28;2.83;;;21.80;99.90;;;;;;5139317;27;20034;-71
2023/07/15 02:50:07;;;;;;;6.00;2.05;;;21.80;99.90;;;;;;5139583;27;20054;-71
2023/07/15 02:52:34;;;;;;;3.75;2.35;;;21.80;99.90;;;;;;5139280;27;20111;-71
2023/07/15 02:55:01;;;;;;;4.05;2.10;;;21.80;99.90;;;;;;5139375;27;20016;-72
2023/07/15 02:57:27;;;;;;;5.90;2.72;;;21.80;99.90;;;;;;5137941;27;20031;-71
2023/07/15 02:59:56;;;;;;;3.15;2.28;;;21.80;99.90;;;;;;5138970;27;20023;-72
2023/07/15 03:02:23;;;;;;;3.40;2.38;;;21.80;99.90;;;;;;5138437;27;20027;-72
2023/07/15 03:04:49;;;;;;;4.22;2.30;;;21.90;99.90;;;;;;5138469;27;20019;-72
2023/07/15 03:07:16;;;;;;;3.22;2.10;;;21.80;99.90;;;;;;5138376;27;20099;-72
2023/07/15 03:09:42;;;;;;;4.93;2.55;;;21.80;99.90;;;;;;5138687;27;20083;-72
2023/07/15 03:12:09;;;;;;;3.45;2.25;;;21.80;99.90;;;;;;5138532;27;20019;-72
2023/07/15 03:14:35;;;;;;;3.25;2.42;;;21.80;99.90;;;;;;5137146;27;20096;-72
2023/07/15 03:17:01;;;;;;;2.72;2.00;;;21.90;99.90;;;;;;5137259;27;20495;-72
2023/07/15 03:19:27;;;;;;;3.85;2.15;;;21.90;99.90;;;;;;5138559;27;20015;-72
2023/07/15 03:21:53;;;;;;;3.60;2.03;;;21.80;99.90;;;;;;5138640;27;20015;-72
2023/07/15 03:24:19;;;;;;;6.15;2.00;;;21.80;99.90;;;;;;5139020;27;20115;-72
2023/07/15 03:26:44;;;;;;;3.47;2.10;;;21.80;99.90;;;;;;5137235;27;20106;-72
2023/07/15 03:29:11;;;;;;;3.60;2.20;;;21.80;99.90;;;;;;5138773;27;20106;-72
2023/07/15 03:31:36;;;;;;;6.30;2.58;;;21.90;99.90;;;;;;5138559;27;20019;-71
2023/07/15 03:34:02;;;;;;;3.55;2.33;;;21.90;99.90;;;;;;5138255;27;20031;-72
2023/07/15 03:36:28;;;;;;;3.95;2.08;;;21.90;99.90;;;;;;5138158;27;20015;-72
2023/07/15 03:38:53;;;;;;;3.00;2.00;;;21.80;99.90;;;;;;5138633;27;20536;-72
2023/07/15 03:41:19;;;;;;;2.38;2.15;;;21.80;99.90;;;;;;5138497;27;20094;-72
2023/07/15 03:43:45;;;;;;;3.03;2.05;;;21.80;99.90;;;;;;5138331;27;20019;-71
2023/07/15 03:46:12;;;;;;;2.58;1.70;;;21.80;99.90;;;;;;5136955;27;20023;-72
2023/07/15 03:48:38;;;;;;;4.97;2.00;;;21.80;99.90;;;;;;5137798;27;20015;-71
2023/07/15 03:51:06;;;;;;;5.78;1.77;;;21.80;99.90;;;;;;5137966;27;20091;-71
2023/07/15 03:53:32;;;;;;;2.58;1.88;;;21.80;99.90;;;;;;5138296;27;20031;-71
2023/07/15 03:55:58;;;;;;;4.80;2.15;;;21.80;99.90;;;;;;5136807;27;20490;-71
2023/07/15 03:58:24;;;;;;;3.08;2.30;;;21.70;99.90;;;;;;5138339;27;20368;-71
2023/07/15 04:00:49;;;;;;;3.20;1.95;;;21.70;99.90;;;;;;5137858;27;20060;-72
2023/07/15 04:03:15;;;;;;;2.65;1.90;;;21.60;99.90;;;;;;5137782;27;20050;-72
2023/07/15 04:05:40;;;;;;;7.00;3.13;;;21.60;99.90;;;;;;5137667;27;20034;-72
2023/07/15 04:08:06;;;;;;;5.55;2.45;;;21.60;99.90;;;;;;5136610;27;20030;-72
2023/07/15 04:10:32;;;;;;;5.18;2.10;;;21.60;99.90;;;;;;5137646;27;20031;-71
2023/07/15 04:12:58;;;;;;;3.80;2.05;;;21.50;99.90;;;;;;5136772;27;20425;-71
2023/07/15 04:15:23;;;;;;;4.40;2.08;;;21.50;99.90;;;;;;5136362;28;20027;-72
2023/07/15 04:17:49;;;;;;;4.30;2.03;;;21.50;99.90;;;;;;5137782;28;20022;-72
2023/07/15 04:20:17;;;;;;;4.03;2.45;;;21.50;99.90;;;;;;5137866;28;20027;-71
2023/07/15 04:22:43;;;;;;;2.47;1.90;;;21.40;99.90;;;;;;5138000;27;20436;-71
2023/07/15 04:25:11;;;;;;;2.70;1.73;;;21.40;99.90;;;;;;5137832;27;20058;-71
2023/07/15 04:27:40;;;;;;;2.80;2.38;;;21.40;99.90;;;;;;5137890;27;20023;-71
2023/07/15 04:30:06;;;;;;;3.75;1.95;;;21.40;99.90;;;;;;5137860;27;20019;-71
2023/07/15 04:32:32;;;;;;;2.90;1.80;;;21.40;99.90;;;;;;5137635;27;20057;-72
2023/07/15 04:34:58;;;;;;;2.95;2.33;;;21.40;99.90;;;;;;5137730;28;20491;-71
2023/07/15 04:37:25;;;;;;;3.95;1.88;;;21.40;99.90;;;;;;5137776;28;20050;-71
2023/07/15 04:39:50;;;;;;;5.45;2.38;;;21.40;99.90;;;;;;5137864;27;20023;-71
2023/07/15 04:42:17;;;;;;;4.60;2.38;;;21.40;99.90;;;;;;5137796;28;20024;-71
2023/07/15 04:44:43;;;;;;;3.72;2.08;;;21.40;99.90;;;;;;5124364;28;20098;-71
2023/07/15 04:47:09;;;;;;;3.35;2.10;;;21.40;99.90;;;;;;5137880;28;20038;-72
2023/07/15 04:49:35;;;;;;;3.78;2.05;;;21.50;99.90;;;;;;5137549;27;20023;-72
2023/07/15 04:52:01;;;;;;;4.13;2.13;;;21.50;99.90;;;;;;5137469;27;20023;-72
2023/07/15 04:54:27;;;;;;;4.43;2.10;;;21.50;99.90;;;;;;5137618;28;20061;-72
2023/07/15 04:56:53;;;;;;;4.00;2.00;;;21.40;99.90;;;;;;5137815;27;20024;-71
2023/07/15 04:59:19;;;;;;;2.75;1.90;;;21.40;99.90;;;;;;5137859;27;20031;-72
2023/07/15 05:01:44;;;;;;;3.97;1.88;;;21.50;99.90;;;;;;5138900;27;20019;-72
2023/07/15 05:04:10;;;;;;;4.75;2.13;;;21.50;99.90;;;;;;5141019;27;20047;-72
2023/07/15 05:06:37;;;;;;;3.10;2.08;;;21.40;99.90;;;;;;5141303;27;20027;-72
2023/07/15 05:09:04;;;;;;;3.40;2.30;;;21.40;99.90;;;;;;5128013;27;20034;-72
2023/07/15 05:11:30;;;;;;;3.15;1.98;;;21.50;99.90;;;;;;5141232;27;20034;-72
2023/07/15 05:13:56;;;;;;;3.85;2.20;;;21.60;99.90;;;;;;5129915;27;20047;-72
2023/07/15 05:16:22;;;;;;;2.55;1.70;;;21.50;99.90;;;;;;5139688;27;20498;-72
2023/07/15 05:18:47;;;;;;;2.53;1.92;;;21.60;99.90;;;;;;5127655;27;20463;-72
2023/07/15 05:21:14;;;;;;;3.92;2.33;;;21.70;99.90;;;;;;5127084;27;20016;-72
2023/07/15 05:23:39;;;;;;;2.35;1.67;;;21.70;99.90;;;;;;5141056;27;20429;-71
2023/07/15 05:26:05;;;;;;;3.60;2.05;;;21.70;99.90;;;;;;5139532;27;20023;-72
2023/07/15 05:28:32;;;;;;;4.43;2.28;;;21.80;99.90;;;;;;5141069;27;20023;-72
2023/07/15 05:30:58;;;;;;;3.13;2.13;;;21.70;99.90;;;;;;5141052;27;20019;-72
2023/07/15 05:33:24;;;;;;;2.17;1.70;;;21.70;99.90;;;;;;5139457;27;20023;-72
2023/07/15 05:35:50;;;;;;;3.03;2.13;;;21.70;99.90;;;;;;5140612;27;20034;-72
2023/07/15 05:38:15;;;;;;;4.25;2.22;;;21.80;99.90;;;;;;5140990;27;20019;-72
2023/07/15 05:40:41;;;;;;;2.75;1.88;;;21.80;99.90;;;;;;5140824;27;20015;-72
2023/07/15 05:43:08;;;;;;;2.58;1.90;;;21.80;99.90;;;;;;5140812;27;20057;-72
2023/07/15 05:45:33;;;;;;;3.78;1.83;;;21.80;99.90;;;;;;5139546;27;20106;-72
2023/07/15 05:47:59;;;;;;;2.65;1.90;;;21.90;99.90;;;;;;5140417;27;20490;-72
2023/07/15 05:50:25;;;;;;;3.95;2.20;;;22.00;99.90;;;;;;5140603;27;20088;-72
2023/07/15 05:52:52;;;;;;;2.92;1.80;;;22.00;99.90;;;;;;5140460;27;20023;-72
2023/07/15 05:55:19;;;;;;;3.67;2.05;;;22.10;99.90;;;;;;5140675;27;20474;-71
2023/07/15 05:57:45;;;;;;;4.70;1.92;;;22.20;99.90;;;;;;5125694;27;20030;-72
2023/07/15 06:00:11;;;;;;;2.45;1.65;;;22.10;99.90;;;;;;5139170;27;20106;-73
2023/07/15 06:02:39;;;;;;;4.85;1.92;;;22.20;99.90;;;;;;5126615;27;20043;-72
2023/07/15 06:05:06;;;;;;;2.28;1.75;;;22.20;99.90;;;;;;5140030;27;20053;-72
2023/07/15 06:07:31;;;;;;;7.20;2.33;;;22.20;99.90;;;;;;5140437;27;20079;-71
2023/07/15 06:09:57;;;;;;;2.60;2.00;;;22.20;99.90;;;;;;5139832;27;20521;-72
2023/07/15 06:12:23;;;;;;;3.97;2.22;;;22.10;99.90;;;;;;5139983;27;20029;-72
2023/07/15 06:14:49;;;;;;;4.57;2.28;;;22.00;99.90;;;;;;5137137;27;20045;-72
2023/07/15 06:17:14;;;;;;;3.50;2.25;;;21.90;99.90;;;;;;5140101;27;20103;-72
2023/07/15 06:19:40;;;;;;;3.05;1.77;;;21.90;99.90;;;;;;5139360;27;20103;-72
2023/07/15 06:22:06;;;;;;;2.72;2.00;;;21.80;99.90;;;;;;5140208;27;20019;-72
2023/07/15 06:24:32;;;;;;;6.50;2.30;;;21.80;99.90;;;;;;5138442;27;20031;-72
2023/07/15 06:26:57;;;;;;;4.88;2.05;;;21.70;99.90;;;;;;5139946;27;20018;-72
2023/07/15 06:29:26;;;;;;;4.70;2.13;;;21.70;99.90;;;;;;5139801;27;20058;-72
2023/07/15 06:31:52;;;;;;;4.93;2.50;;;21.70;99.90;;;;;;5138733;27;20023;-72
2023/07/15 06:34:18;;;;;;;5.07;1.90;;;21.70;99.90;;;;;;5139753;27;20031;-72
2023/07/15 06:36:43;;;;;;;4.00;2.95;;;21.70;99.90;;;;;;5139755;27;20024;-73
2023/07/15 06:39:09;;;;;;;3.05;1.98;;;21.70;99.90;;;;;;5139462;27;20046;-72
2023/07/15 06:41:35;;;;;;;3.05;2.17;;;21.80;99.90;;;;;;5139788;27;20045;-70
2023/07/15 06:44:00;;;;;;;2.53;1.80;;;21.90;99.90;;;;;;5139488;27;20035;-70
2023/07/15 06:46:26;;;;;;;3.63;2.30;;;22.00;99.90;;;;;;5139395;27;20031;-71
2023/07/15 06:48:52;;;;;;;5.20;3.03;;;22.20;99.90;;;;;;5139373;27;20034;-70
2023/07/15 06:51:19;;;;;;;4.28;2.60;;;22.30;99.90;;;;;;5137936;27;20023;-70
2023/07/15 06:53:45;;;;;;;2.90;2.28;;;22.40;99.90;;;;;;5139058;27;20134;-70
2023/07/15 06:56:11;;;;;;;2.55;1.95;;;22.60;99.90;;;;;;5139399;27;20030;-71
2023/07/15 06:58:37;;;;;;;4.65;2.13;;;22.80;99.90;;;;;;5139323;27;20410;-70
2023/07/15 07:01:03;;;;;;;3.38;2.13;;;22.90;99.90;;;;;;5139187;27;20116;-70
2023/07/15 07:03:28;;;;;;;2.58;1.83;;;23.20;99.90;;;;;;5137513;27;20051;-71
2023/07/15 07:05:54;;;;;;;2.15;1.70;;;23.40;99.90;;;;;;5139236;27;20026;-70
2023/07/15 07:08:23;;;;;;;3.28;2.00;;;23.50;99.90;;;;;;5138971;27;20031;-71
2023/07/15 07:10:52;;;;;;;2.92;2.25;;;23.60;99.90;;;;;;5139080;27;20027;-71
2023/07/15 07:13:20;;;;;;;2.65;1.90;;;23.70;99.90;;;;;;5131317;27;20403;-70
2023/07/15 07:15:48;;;;;;;2.90;2.17;;;23.70;99.90;;;;;;5136889;27;20015;-71
2023/07/15 07:18:13;;;;;;;2.13;1.67;;;23.70;99.90;;;;;;5138847;27;20023;-71
2023/07/15 07:20:40;;;;;;;2.90;1.90;;;23.80;99.90;;;;;;5137317;27;20015;-71
2023/07/15 07:23:05;;;;;;;2.63;1.80;;;23.90;99.90;;;;;;5138935;27;20035;-71
2023/07/15 07:25:31;;;;;;;2.85;2.10;;;23.90;99.90;;;;;;5137758;27;20498;-71
2023/07/15 07:27:57;;;;;;;3.42;2.50;;;24.00;99.90;;;;;;5125194;27;20035;-71
2023/07/15 07:30:23;;;;;;;3.50;2.22;;;24.20;99.90;;;;;;5123477;27;20029;-70
2023/07/15 07:32:48;;;;;;;3.40;1.83;;;24.20;99.90;;;;;;5128405;27;20201;-71
2023/07/15 07:35:14;;;;;;;3.03;1.98;;;24.30;99.90;;;;;;5129968;27;20055;-70
2023/07/15 07:37:40;;;;;;;2.85;2.17;;;24.20;99.90;;;;;;5135654;27;20019;-71
2023/07/15 07:40:09;;;;;;;3.25;2.00;;;24.30;99.90;;;;;;5136803;27;20090;-71
2023/07/15 07:42:35;;;;;;;5.15;2.40;;;24.40;99.90;;;;;;5118860;27;20433;-71
2023/07/15 07:45:10;;;;;;;2.72;1.90;;;24.60;99.90;;;;;;5132770;27;20023;-70
2023/07/15 07:47:36;;;;;;;4.05;2.00;;;24.80;99.90;;;;;;5121468;27;20027;-71
2023/07/15 07:50:02;;;;;;;3.50;2.13;;;24.90;99.90;;;;;;5136182;27;20046;-72
2023/07/15 07:52:27;;;;;;;3.25;1.95;;;25.00;99.90;;;;;;5122484;27;20547;-70
2023/07/15 07:54:53;;;;;;;3.33;1.80;;;25.30;99.90;;;;;;5130225;27;20046;-70
2023/07/15 07:57:19;;;;;;;3.28;2.10;;;25.40;99.90;;;;;;5131060;27;20372;-70
2023/07/15 07:59:44;;;;;;;2.88;1.80;;;25.50;99.90;;;;;;5131631;27;20023;-69
2023/07/15 08:02:10;;;;;;;5.28;2.33;;;25.50;99.90;;;;;;5133354;27;20019;-70
2023/07/15 08:04:35;;;;;;;2.58;1.75;;;25.30;99.90;;;;;;5132129;27;20023;-69
2023/07/15 08:07:01;;;;;;;3.17;1.92;;;25.40;99.90;;;;;;5133659;27;20027;-69
2023/07/15 08:09:27;;;;;;;2.88;1.83;;;25.60;99.90;;;;;;5118866;27;20028;-69
2023/07/15 08:11:52;;;;;;;2.28;1.60;;;25.60;99.90;;;;;;5129396;27;20031;-69
2023/07/15 08:14:18;;;;;;;2.80;2.03;;;25.60;99.90;;;;;;5126592;27;20031;-69
2023/07/15 08:16:44;;;;;;;2.58;1.70;;;25.60;99.90;;;;;;5133384;27;20024;-69
2023/07/15 08:19:10;;;;;;;2.45;1.52;;;25.70;99.90;;;;;;5132345;27;20051;-70
2023/07/15 08:21:36;;;;;;;6.97;2.60;;;25.70;99.90;;;;;;5134502;27;20106;-69
2023/07/15 08:24:02;;;;;;;4.53;1.80;;;25.90;99.90;;;;;;5136263;27;20023;-69
2023/07/15 08:26:28;;;;;;;3.22;1.63;;;26.00;99.90;;;;;;5126394;28;20121;-70
2023/07/15 08:28:55;;;;;;;4.55;1.95;;;26.10;99.90;;;;;;5133772;27;20023;-70
2023/07/15 08:31:21;;;;;;;3.75;2.50;;;26.10;99.90;;;;;;5129304;28;20092;-69
2023/07/15 08:33:47;;;;;;;5.68;1.75;;;26.20;99.90;;;;;;5120882;28;20031;-69
2023/07/15 08:36:13;;;;;;;4.00;2.05;;;26.30;99.90;;;;;;5134916;27;20023;-70
2023/07/15 08:38:38;;;;;;;2.85;2.00;;;26.30;99.90;;;;;;5127205;27;20046;-70
2023/07/15 08:41:04;;;;;;;5.45;1.85;;;26.40;99.90;;;;;;5128866;27;20019;-70
2023/07/15 08:43:30;;;;;;;3.45;2.15;;;26.50;99.90;;;;;;5136768;27;20438;-69
2023/07/15 08:46:00;;;;;;;4.32;2.10;;;26.60;99.90;;;;;;5130735;27;20525;-69
2023/07/15 08:48:27;;;;;;;2.67;1.90;;;26.60;99.90;;;;;;5136888;27;20505;-69
2023/07/15 08:50:56;;;;;;;6.38;1.90;;;26.80;99.90;;;;;;5140299;27;20269;-69
2023/07/15 08:53:26;;;;;;;2.65;1.90;;;26.70;99.90;;;;;;5137221;27;20106;-70
2023/07/15 08:55:55;;;;;;;3.25;1.80;;;26.40;99.90;;;;;;5137336;27;20027;-69
2023/07/15 08:58:21;;;;;;;3.30;1.77;;;26.30;99.90;;;;;;5135757;27;20066;-70
2023/07/15 09:00:47;;;;;;;3.75;1.88;;;26.60;99.90;;;;;;5130492;27;20016;-69
2023/07/15 09:03:12;;;;;;;5.05;1.80;;;26.60;99.90;;;;;;5135771;27;20122;-69
2023/07/15 09:05:38;;;;;;;2.72;1.85;;;26.60;99.90;;;;;;5133984;27;20023;-69
2023/07/15 09:08:12;;;;;;;4.75;1.98;;;26.70;99.90;;;;;;5136819;27;20168;-69
2023/07/15 09:10:58;;;;;;;4.18;2.20;;;26.80;99.90;;;;;;5134819;27;20510;-70
2023/07/15 09:13:24;;;;;;;5.32;1.98;;;26.70;99.90;;;;;;5133703;27;20030;-70
2023/07/15 09:15:50;;;;;;;3.85;1.80;;;26.70;99.90;;;;;;5138958;27;20029;-70
2023/07/15 09:18:16;;;;;;;4.32;1.95;;;26.70;99.90;;;;;;5138465;27;20550;-69
2023/07/15 09:20:42;;;;;;;4.38;2.97;;;26.80;99.90;;;;;;5127290;27;20027;-70
2023/07/15 09:23:08;;;;;;;3.03;1.98;;;26.80;99.90;;;;;;5139100;27;20102;-69
2023/07/15 09:25:36;;;;;;;6.72;2.42;;;27.00;99.90;;;;;;5139600;27;20031;-70
2023/07/15 09:28:02;;;;;;;4.30;2.00;;;26.90;99.90;;;;;;5139141;27;20448;-69
2023/07/15 09:30:27;;;;;;;4.10;2.17;;;27.00;99.90;;;;;;5139644;27;20035;-69
2023/07/15 09:32:53;;;;;;;2.45;1.80;;;27.10;99.90;;;;;;5139564;27;20052;-70
2023/07/15 09:35:20;;;;;;;5.00;2.08;;;27.30;99.90;;;;;;5139927;27;20047;-69
2023/07/15 09:37:47;;;;;;;4.88;2.15;;;27.30;99.90;;;;;;5136055;27;20020;-69
2023/07/15 09:40:13;;;;;;;4.55;2.13;;;27.10;99.90;;;;;;5134421;27;20022;-69
2023/07/15 09:42:56;;;;;;;3.78;2.67;;;27.00;99.90;;;;;;5133502;27;20027;-70
2023/07/15 09:45:34;;;;;;;6.22;2.03;;;26.90;99.90;;;;;;5135006;27;20034;-70
2023/07/15 09:48:05;;;;;;;3.50;2.05;;;27.00;99.90;;;;;;5135437;27;20486;-71
2023/07/15 09:50:33;;;;;;;2.60;2.10;;;27.00;99.90;;;;;;5136181;27;20106;-70
2023/07/15 09:53:00;;;;;;;4.70;2.40;;;26.80;99.90;;;;;;5132753;27;20019;-71
2023/07/15 09:55:27;;;;;;;5.72;2.80;;;26.80;99.90;;;;;;5134083;27;20024;-69
2023/07/15 09:58:17;;;;;;;3.47;2.10;;;26.70;99.90;;;;;;5132831;27;20026;-70
2023/07/15 10:00:48;;;;;;;4.53;2.37;;;26.70;99.90;;;;;;5129375;27;20030;-69
2023/07/15 10:03:22;;;;;;;4.65;2.53;;;26.50;99.90;;;;;;5138380;27;20043;-70
2023/07/15 10:05:49;;;;;;;3.38;2.35;;;26.30;99.90;;;;;;5125085;27;20024;-70
2023/07/15 10:08:15;;;;;;;4.85;2.85;;;26.30;99.90;;;;;;5138608;27;20046;-71
2023/07/15 10:10:41;;;;;;;4.65;2.83;;;26.30;99.90;;;;;;5140335;27;20475;-72
2023/07/15 10:13:09;;;;;;;4.60;2.92;;;26.40;99.90;;;;;;5138078;27;20019;-72
2023/07/15 10:15:35;;;;;;;6.45;2.72;;;26.50;99.90;;;;;;5135329;27;20015;-72
2023/07/15 10:18:16;;;;;;;4.30;3.35;;;26.50;99.90;;;;;;5139726;27;20015;-72
2023/07/15 10:20:46;;;;;;;5.60;3.42;;;26.50;99.90;;;;;;5139963;27;20027;-72
2023/07/15 10:23:24;;;;;;;3.95;3.10;;;26.60;99.90;;;;;;5140027;27;20052;-73
2023/07/15 10:26:03;;;;;;;4.50;2.90;;;26.60;99.90;;;;;;5127554;27;20034;-72
2023/07/15 10:28:39;;;;;;;5.80;2.97;;;26.50;99.90;;;;;;5139672;27;20581;-72
2023/07/15 10:31:16;;;;;;;4.43;3.10;;;26.50;99.90;;;;;;5139752;27;20407;-72
2023/07/15 10:34:02;;;;;;;4.15;2.67;;;26.40;99.90;;;;;;5139477;27;20023;-72
2023/07/15 10:36:40;;;;;;;5.75;3.00;;;26.30;99.90;;;;;;5139751;27;20156;-72
2023/07/15 10:39:16;;;;;;;4.10;2.90;;;26.40;99.90;;;;;;5139684;27;20038;-72
2023/07/15 10:41:48;;;;;;;7.05;2.70;;;26.60;99.90;;;;;;5138154;27;20019;-71
2023/07/15 10:44:20;;;;;;;7.00;4.55;;;26.70;99.90;;;;;;5139739;27;20027;-71
2023/07/15 10:47:02;;;;;;;8.45;4.22;;;26.40;99.90;;;;;;5139256;27;20029;-72
2023/07/15 10:49:30;;;;;;;4.63;3.35;;;26.40;99.90;;;;;;5138751;27;20445;-72
2023/07/15 10:51:57;;;;;;;6.82;3.45;;;26.40;99.90;;;;;;5139384;27;20023;-72
2023/07/15 10:54:27;;;;;;;8.95;4.28;;;26.40;99.90;;;;;;5139343;27;20363;-73
2023/07/15 10:56:54;;;;;;;5.97;3.22;;;26.40;99.90;;;;;;5139562;27;20015;-76
2023/07/15 10:59:34;;;;;;;6.13;2.95;;;26.40;99.90;;;;;;5139120;27;20429;-79
2023/07/15 11:02:00;;;;;;;4.22;3.17;;;26.30;99.90;;;;;;5139026;27;20025;-73
2023/07/15 11:04:26;;;;;;;7.22;3.40;;;26.30;99.90;;;;;;5138439;27;20126;-73
2023/07/15 11:06:52;;;;;;;4.30;2.78;;;26.30;99.90;;;;;;5138937;27;20039;-73
2023/07/15 11:09:22;;;;;;;4.75;2.67;;;26.40;99.90;;;;;;5137603;27;20030;-72
2023/07/15 11:11:48;;;;;;;6.83;3.07;;;26.40;99.90;;;;;;5138859;27;20027;-73
2023/07/15 11:14:28;;;;;;;4.45;3.60;;;26.50;99.90;;;;;;5131321;27;20023;-72
2023/07/15 11:16:56;;;;;;;6.18;2.97;;;26.60;99.90;;;;;;5138907;27;20541;-72
2023/07/15 11:19:23;;;;;;;5.25;3.53;;;26.60;99.90;;;;;;5138592;27;20019;-72
2023/07/15 11:21:51;;;;;;;5.85;3.38;;;26.60;99.90;;;;;;5139192;27;20047;-70
2023/07/15 11:24:18;;;;;;;7.60;3.30;;;26.60;99.90;;;;;;5125307;27;20023;-72
2023/07/15 11:26:44;;;;;;;6.20;3.78;;;26.50;99.90;;;;;;5138686;27;20019;-72
2023/07/15 11:29:29;;;;;;;4.50;3.17;;;26.50;99.90;;;;;;5138725;27;20023;-73
2023/07/15 11:31:56;;;;;;;6.05;3.38;;;26.60;99.90;;;;;;5137281;27;20026;-72
2023/07/15 11:34:23;;;;;;;5.75;3.05;;;26.60;99.90;;;;;;5138389;27;20030;-71
2023/07/15 11:36:51;;;;;;;5.97;3.58;;;26.50;99.90;;;;;;5138773;27;20016;-71
2023/07/15 11:39:17;;;;;;;4.50;2.85;;;26.50;99.90;;;;;;5138538;27;20089;-72
2023/07/15 11:41:43;;;;;;;8.55;3.55;;;26.40;99.90;;;;;;5138227;27;20017;-72
2023/07/15 11:44:14;;;;;;;6.20;3.53;;;26.40;99.90;;;;;;5138441;27;20023;-72
2023/07/15 11:46:41;;;;;;;8.68;3.83;;;26.40;99.90;;;;;;5138380;27;20044;-72
2023/07/15 11:49:07;;;;;;;5.85;3.45;;;26.40;99.90;;;;;;5137950;27;20059;-73
2023/07/15 11:51:35;;;;;;;6.07;3.42;;;26.50;99.90;;;;;;5138073;27;20387;-72
2023/07/15 11:54:02;;;;;;;4.97;2.85;;;26.50;99.90;;;;;;5138315;27;20368;-71
2023/07/15 11:56:40;;;;;;;7.90;3.88;;;26.50;99.90;;;;;;5138391;27;20019;-72
2023/07/15 11:59:30;;;;;;;13.95;3.60;;;26.50;99.90;;;;;;5136719;27;20019;-72
2023/07/15 12:01:58;;;;;;;6.43;3.25;;;26.60;99.90;;;;;;5125586;27;20039;-71
2023/07/15 12:04:27;;;;;;;7.25;3.33;;;26.50;99.90;;;;;;5137417;27;20058;-72
2023/07/15 12:06:53;;;;;;;6.40;3.40;;;26.60;99.90;;;;;;5138161;27;20027;-72
2023/07/15 12:09:19;;;;;;;6.57;3.42;;;26.80;99.90;;;;;;5137840;27;20019;-72
2023/07/15 12:11:46;;;;;;;4.60;3.03;;;27.00;99.90;;;;;;5136396;27;20026;-72
2023/07/15 12:14:13;;;;;;;5.65;3.78;;;27.10;99.90;;;;;;5130021;27;20444;-71
2023/07/15 12:16:39;;;;;;;12.38;4.13;;;27.00;99.90;;;;;;5136870;27;20033;-71
2023/07/15 12:19:09;;;;;;;6.05;3.30;;;27.00;99.90;;;;;;5136217;28;20019;-71
2023/07/15 12:21:35;;;;;;;7.40;3.83;;;27.10;99.90;;;;;;5136594;28;20016;-72
2023/07/15 12:24:01;;;;;;;5.18;3.00;;;27.20;99.90;;;;;;5137769;28;20025;-72
2023/07/15 12:26:26;;;;;;;6.05;3.88;;;27.60;99.90;;;;;;5138088;27;20076;-72
2023/07/15 12:28:52;;;;;;;9.55;4.00;;;27.80;99.90;;;;;;5137718;28;20023;-72
2023/07/15 12:31:18;;;;;;;5.75;3.50;;;27.90;99.90;;;;;;5137829;28;20019;-72
2023/07/15 12:33:44;;;;;;;7.35;3.83;;;28.00;99.90;;;;;;5137408;28;20046;-72
2023/07/15 12:36:12;;;;;;;7.05;3.70;;;28.10;99.90;;;;;;5136237;28;20562;-72
2023/07/15 12:38:38;;;;;;;7.75;4.47;;;28.10;99.90;;;;;;5137978;27;20091;-72
2023/07/15 12:41:05;;;;;;;6.85;3.75;;;28.30;99.90;;;;;;5136279;28;20046;-72
2023/07/15 12:43:31;;;;;;;5.15;3.65;;;28.50;99.90;;;;;;5137554;27;20019;-72
2023/07/15 12:45:57;;;;;;;6.30;3.58;;;28.60;99.90;;;;;;5136350;28;20023;-72